createdAt,value
2023-05-02T00:00:45.380Z,42.02
2023-05-02T00:01:45.421Z,42.03
2023-05-02T00:02:45.633Z,42.01
2023-05-02T00:03:45.624Z,42.02
2023-05-02T00:04:45.486Z,42.01
2023-05-02T00:05:45.490Z,42.01
2023-05-02T00:06:45.574Z,42.03
2023-05-02T00:07:45.544Z,42.02
2023-05-02T00:08:45.587Z,42.02
2023-05-02T00:09:45.608Z,42.02
2023-05-02T00:10:45.637Z,42.02
2023-05-02T00:11:45.647Z,42.02
2023-05-02T00:12:45.671Z,42.01
2023-05-02T00:13:45.688Z,42.05
2023-05-02T00:14:45.708Z,42.01
2023-05-02T00:15:45.732Z,42.00
2023-05-02T00:16:45.775Z,42.02
2023-05-02T00:17:45.818Z,42.03
2023-05-02T00:18:45.780Z,42.00
2023-05-02T00:19:45.809Z,42.02
2023-05-02T00:20:45.850Z,42.03
2023-05-02T00:21:45.860Z,42.03
2023-05-02T00:22:45.958Z,42.02
2023-05-02T00:23:45.897Z,42.02
2023-05-02T00:24:45.928Z,42.03
2023-05-02T00:25:45.966Z,42.02
2023-05-02T00:26:45.975Z,42.02
2023-05-02T00:27:45.996Z,42.02
2023-05-02T00:28:46.030Z,42.04
2023-05-02T00:29:46.037Z,42.03
2023-05-02T00:30:46.133Z,42.02
2023-05-02T00:31:46.081Z,42.01
2023-05-02T00:32:46.119Z,42.02
2023-05-02T00:33:46.132Z,42.01
2023-05-02T00:34:46.169Z,42.02
2023-05-02T00:35:46.196Z,42.03
2023-05-02T00:36:46.235Z,42.03
2023-05-02T00:37:46.254Z,42.01
2023-05-02T00:38:46.285Z,42.01
2023-05-02T00:39:46.332Z,42.02
2023-05-02T00:40:46.364Z,42.02
2023-05-02T00:41:46.351Z,42.03
2023-05-02T00:42:46.382Z,42.02
2023-05-02T00:43:46.401Z,42.04
2023-05-02T00:44:46.421Z,42.01
2023-05-02T00:45:46.602Z,42.03
2023-05-02T00:46:46.585Z,42.03
2023-05-02T00:47:46.521Z,42.03
2023-05-02T00:48:46.511Z,42.02
2023-05-02T00:49:46.552Z,42.02
2023-05-02T00:50:46.582Z,42.02
2023-05-02T00:51:46.606Z,42.00
2023-05-02T00:52:46.625Z,42.00
2023-05-02T00:53:46.646Z,42.01
2023-05-02T00:54:46.675Z,42.04
2023-05-02T00:55:46.705Z,42.02
2023-05-02T00:56:46.742Z,42.02
2023-05-02T00:57:46.760Z,42.01
2023-05-02T00:58:46.785Z,42.01
2023-05-02T00:59:46.829Z,41.99
2023-05-02T01:00:46.851Z,42.02
2023-05-02T01:01:46.911Z,42.02
2023-05-02T01:02:46.946Z,42.00
2023-05-02T01:03:47.092Z,42.00
2023-05-02T01:04:46.960Z,42.02
2023-05-02T01:05:46.986Z,42.02
2023-05-02T01:06:47.226Z,42.01
2023-05-02T01:07:47.045Z,42.01
2023-05-02T01:08:47.068Z,42.00
2023-05-02T01:09:47.101Z,42.01
2023-05-02T01:10:47.113Z,41.99
2023-05-02T01:11:47.149Z,42.00
2023-05-02T01:12:47.182Z,42.04
2023-05-02T01:13:47.207Z,42.01
2023-05-02T01:14:47.232Z,42.01
2023-05-02T01:15:47.279Z,42.02
2023-05-02T01:16:47.281Z,42.02
2023-05-02T01:17:47.349Z,42.03
2023-05-02T01:18:47.330Z,42.02
2023-05-02T01:19:47.349Z,41.98
2023-05-02T01:20:47.378Z,42.02
2023-05-02T01:21:47.418Z,42.00
2023-05-02T01:22:47.521Z,41.99
2023-05-02T01:23:47.475Z,41.97
2023-05-02T01:24:47.511Z,41.99
2023-05-02T01:25:47.544Z,41.96
2023-05-02T01:26:47.578Z,42.00
2023-05-02T01:27:47.607Z,41.97
2023-05-02T01:28:47.637Z,41.99
2023-05-02T01:29:47.664Z,42.02
2023-05-02T01:30:47.688Z,42.01
2023-05-02T01:31:47.757Z,42.01
2023-05-02T01:32:47.825Z,42.03
2023-05-02T01:33:47.877Z,42.02
2023-05-02T01:34:47.823Z,41.99
2023-05-02T01:35:47.844Z,42.02
2023-05-02T01:36:47.876Z,42.02
2023-05-02T01:37:47.914Z,42.03
2023-05-02T01:38:47.955Z,41.98
2023-05-02T01:39:47.966Z,42.00
2023-05-02T01:40:48.013Z,42.02
2023-05-02T01:41:48.042Z,42.02
2023-05-02T01:42:48.049Z,41.99
2023-05-02T01:43:48.120Z,42.00
2023-05-02T01:44:48.139Z,41.99
2023-05-02T01:45:48.134Z,42.00
2023-05-02T01:46:48.208Z,42.00
2023-05-02T01:47:48.267Z,42.02
2023-05-02T01:48:48.221Z,41.99
2023-05-02T01:49:48.249Z,42.00
2023-05-02T01:50:48.278Z,41.98
2023-05-02T01:51:48.325Z,41.99
2023-05-02T01:52:48.345Z,41.98
2023-05-02T01:53:48.376Z,42.00
2023-05-02T01:54:48.390Z,41.96
2023-05-02T01:55:48.428Z,41.98
2023-05-02T01:56:48.465Z,41.97
2023-05-02T01:57:48.493Z,41.99
2023-05-02T01:58:48.518Z,41.97
2023-05-02T01:59:48.575Z,41.97
2023-05-02T02:00:48.612Z,42.00
2023-05-02T02:01:48.627Z,41.95
2023-05-02T02:02:48.742Z,41.98
2023-05-02T02:03:48.721Z,41.97
2023-05-02T02:04:48.858Z,41.98
2023-05-02T02:05:48.746Z,41.99
2023-05-02T02:06:48.892Z,41.96
2023-05-02T02:07:48.789Z,41.97
2023-05-02T02:08:48.814Z,41.94
2023-05-02T02:09:48.851Z,41.95
2023-05-02T02:10:49.005Z,41.96
2023-05-02T02:11:48.913Z,41.94
2023-05-02T02:12:48.927Z,41.94
2023-05-02T02:13:48.956Z,41.93
2023-05-02T02:14:48.972Z,41.94
2023-05-02T02:15:49.031Z,41.96
2023-05-02T02:16:49.095Z,41.95
2023-05-02T02:17:49.114Z,41.96
2023-05-02T02:18:49.092Z,41.94
2023-05-02T02:19:49.118Z,41.96
2023-05-02T02:20:49.152Z,41.94
2023-05-02T02:21:49.181Z,41.94
2023-05-02T02:22:49.210Z,41.93
2023-05-02T02:23:49.257Z,41.93
2023-05-02T02:24:49.256Z,41.92
2023-05-02T02:25:49.305Z,41.93
2023-05-02T02:26:49.299Z,41.94
2023-05-02T02:27:49.342Z,41.93
2023-05-02T02:28:49.355Z,41.91
2023-05-02T02:29:49.375Z,41.94
2023-05-02T02:30:49.426Z,41.93
2023-05-02T02:31:49.423Z,41.92
2023-05-02T02:32:49.521Z,41.92
2023-05-02T02:33:49.484Z,41.92
2023-05-02T02:34:49.511Z,41.94
2023-05-02T02:35:49.529Z,41.95
2023-05-02T02:36:49.557Z,41.93
2023-05-02T02:37:49.579Z,41.92
2023-05-02T02:38:49.624Z,41.90
2023-05-02T02:39:49.637Z,41.91
2023-05-02T02:40:49.684Z,41.91
2023-05-02T02:41:49.693Z,41.90
2023-05-02T02:42:49.705Z,41.89
2023-05-02T02:43:49.719Z,41.93
2023-05-02T02:44:49.751Z,41.90
2023-05-02T02:45:49.780Z,41.90
2023-05-02T02:46:49.851Z,41.89
2023-05-02T02:47:49.873Z,41.91
2023-05-02T02:48:49.838Z,41.91
2023-05-02T02:49:49.902Z,41.90
2023-05-02T02:50:49.894Z,41.89
2023-05-02T02:51:49.921Z,41.89
2023-05-02T02:52:49.941Z,41.87
2023-05-02T02:53:49.966Z,41.88
2023-05-02T02:54:49.991Z,41.86
2023-05-02T02:55:50.010Z,41.89
2023-05-02T02:56:50.057Z,41.89
2023-05-02T02:57:50.065Z,41.90
2023-05-02T02:58:50.111Z,41.88
2023-05-02T02:59:50.119Z,41.89
2023-05-02T03:00:50.128Z,41.88
2023-05-02T03:01:50.206Z,41.88
2023-05-02T03:02:50.206Z,41.88
2023-05-02T03:03:50.229Z,41.90
2023-05-02T03:04:50.224Z,41.89
2023-05-02T03:05:50.253Z,41.89
2023-05-02T03:06:50.356Z,41.90
2023-05-02T03:07:50.315Z,41.90
2023-05-02T03:08:50.352Z,41.88
2023-05-02T03:09:50.372Z,41.88
2023-05-02T03:10:50.391Z,41.88
2023-05-02T03:11:50.411Z,41.89
2023-05-02T03:12:50.440Z,41.88
2023-05-02T03:13:50.463Z,41.89
2023-05-02T03:14:50.490Z,41.89
2023-05-02T03:15:50.550Z,41.88
2023-05-02T03:16:50.548Z,41.87
2023-05-02T03:17:50.610Z,41.88
2023-05-02T03:18:50.599Z,41.87
2023-05-02T03:19:50.628Z,41.83
2023-05-02T03:20:50.652Z,41.85
2023-05-02T03:21:50.692Z,41.85
2023-05-02T03:22:50.723Z,41.84
2023-05-02T03:23:50.757Z,41.86
2023-05-02T03:24:50.789Z,41.87
2023-05-02T03:25:50.823Z,41.85
2023-05-02T03:26:50.852Z,41.86
2023-05-02T03:27:50.885Z,41.86
2023-05-02T03:28:50.919Z,41.87
2023-05-02T03:29:50.950Z,41.85
2023-05-02T03:30:50.980Z,41.86
2023-05-02T03:31:51.066Z,41.86
2023-05-02T03:32:51.113Z,41.85
2023-05-02T03:33:51.076Z,41.84
2023-05-02T03:34:51.123Z,41.86
2023-05-02T03:35:51.118Z,41.87
2023-05-02T03:36:51.140Z,41.85
2023-05-02T03:37:51.143Z,41.88
2023-05-02T03:38:51.153Z,41.83
2023-05-02T03:39:51.150Z,41.86
2023-05-02T03:40:51.150Z,41.86
2023-05-02T03:41:51.162Z,41.83
2023-05-02T03:42:51.167Z,41.84
2023-05-02T03:43:51.178Z,41.83
2023-05-02T03:44:51.172Z,41.82
2023-05-02T03:45:51.184Z,41.86
2023-05-02T03:46:51.250Z,41.85
2023-05-02T03:47:51.213Z,41.86
2023-05-02T03:48:51.208Z,41.84
2023-05-02T03:49:51.208Z,41.85
2023-05-02T03:50:51.222Z,41.86
2023-05-02T03:51:51.227Z,41.84
2023-05-02T03:52:51.228Z,41.83
2023-05-02T03:53:51.236Z,41.83
2023-05-02T03:54:51.252Z,41.84
2023-05-02T03:55:51.244Z,41.84
2023-05-02T03:56:51.269Z,41.84
2023-05-02T03:57:51.255Z,41.85
2023-05-02T03:58:51.392Z,41.83
2023-05-02T03:59:51.306Z,41.84
2023-05-02T04:00:51.341Z,41.83
2023-05-02T04:01:51.422Z,41.83
2023-05-02T04:02:51.541Z,41.83
2023-05-02T04:03:51.472Z,41.81
2023-05-02T04:04:51.482Z,41.82
2023-05-02T04:05:51.533Z,41.85
2023-05-02T04:06:51.666Z,41.83
2023-05-02T04:07:51.566Z,41.81
2023-05-02T04:08:51.601Z,41.83
2023-05-02T04:09:51.641Z,41.86
2023-05-02T04:10:51.663Z,41.85
2023-05-02T04:11:51.686Z,41.82
2023-05-02T04:12:51.710Z,41.83
2023-05-02T04:13:53.439Z,41.83
2023-05-02T04:14:51.784Z,41.84
2023-05-02T04:15:51.805Z,41.82
2023-05-02T04:16:51.881Z,41.83
2023-05-02T04:17:51.896Z,41.79
2023-05-02T04:18:51.888Z,41.79
2023-05-02T04:19:51.901Z,41.80
2023-05-02T04:20:51.929Z,41.82
2023-05-02T04:21:51.957Z,41.84
2023-05-02T04:22:51.985Z,41.84
2023-05-02T04:23:52.008Z,41.82
2023-05-02T04:24:52.039Z,41.83
2023-05-02T04:25:52.062Z,41.83
2023-05-02T04:26:52.094Z,41.82
2023-05-02T04:27:52.128Z,41.84
2023-05-02T04:28:52.163Z,41.82
2023-05-02T04:29:52.192Z,41.81
2023-05-02T04:30:52.250Z,41.81
2023-05-02T04:31:52.232Z,41.83
2023-05-02T04:32:52.333Z,41.82
2023-05-02T04:33:52.283Z,41.81
2023-05-02T04:34:52.342Z,41.84
2023-05-02T04:35:52.365Z,41.80
2023-05-02T04:36:52.388Z,41.80
2023-05-02T04:37:52.417Z,41.81
2023-05-02T04:38:52.431Z,41.80
2023-05-02T04:39:52.470Z,41.80
2023-05-02T04:40:52.502Z,41.79
2023-05-02T04:41:52.534Z,41.80
2023-05-02T04:42:52.558Z,41.80
2023-05-02T04:43:52.580Z,41.81
2023-05-02T04:44:52.605Z,41.78
2023-05-02T04:45:52.687Z,41.77
2023-05-02T04:46:52.686Z,41.79
2023-05-02T04:47:52.758Z,41.80
2023-05-02T04:48:52.706Z,41.81
2023-05-02T04:49:52.748Z,41.80
2023-05-02T04:50:52.772Z,41.78
2023-05-02T04:51:52.802Z,41.80
2023-05-02T04:52:52.830Z,41.79
2023-05-02T04:53:52.856Z,41.79
2023-05-02T04:54:52.902Z,41.79
2023-05-02T04:55:53.252Z,41.77
2023-05-02T04:56:52.956Z,41.79
2023-05-02T04:57:53.735Z,41.76
2023-05-02T04:58:53.007Z,41.78
2023-05-02T04:59:53.041Z,41.78
2023-05-02T05:00:53.069Z,41.76
2023-05-02T05:01:53.137Z,41.75
2023-05-02T05:02:53.188Z,41.76
2023-05-02T05:03:53.223Z,41.77
2023-05-02T05:04:53.263Z,41.76
2023-05-02T05:05:53.204Z,41.77
2023-05-02T05:06:53.313Z,41.73
2023-05-02T05:07:53.263Z,41.74
2023-05-02T05:08:53.297Z,41.75
2023-05-02T05:09:53.620Z,41.73
2023-05-02T05:10:53.362Z,41.74
2023-05-02T05:11:53.398Z,41.77
2023-05-02T05:12:53.437Z,41.72
2023-05-02T05:13:53.452Z,41.75
2023-05-02T05:14:53.481Z,41.74
2023-05-02T05:15:53.520Z,41.76
2023-05-02T05:16:53.555Z,41.73
2023-05-02T05:17:53.596Z,41.72
2023-05-02T05:18:53.618Z,41.83
2023-05-02T05:19:53.669Z,41.81
2023-05-02T05:20:53.694Z,41.83
2023-05-02T05:21:53.717Z,42.01
2023-05-02T05:22:53.754Z,41.93
2023-05-02T05:23:53.801Z,41.91
2023-05-02T05:24:53.841Z,41.88
2023-05-02T05:25:53.837Z,42.12
2023-05-02T05:26:53.842Z,42.63
2023-05-02T05:27:53.868Z,43.02
2023-05-02T05:28:53.876Z,43.14
2023-05-02T05:29:53.916Z,43.50
2023-05-02T05:30:53.914Z,43.65
2023-05-02T05:31:53.960Z,44.06
2023-05-02T05:32:54.703Z,44.26
2023-05-02T05:33:54.049Z,44.13
2023-05-02T05:34:54.053Z,44.16
2023-05-02T05:35:54.110Z,44.47
2023-05-02T05:36:54.172Z,44.58
2023-05-02T05:37:54.237Z,44.77
2023-05-02T05:38:54.293Z,44.79
2023-05-02T05:39:54.357Z,44.99
2023-05-02T05:40:54.404Z,45.14
2023-05-02T05:41:54.452Z,45.20
2023-05-02T05:42:54.497Z,45.24
2023-05-02T05:43:54.540Z,45.48
2023-05-02T05:44:54.590Z,45.53
2023-05-02T05:45:54.628Z,45.98
2023-05-02T05:46:54.760Z,46.02
2023-05-02T05:47:54.727Z,45.84
2023-05-02T05:48:54.708Z,45.91
2023-05-02T05:49:54.750Z,45.96
2023-05-02T05:50:54.758Z,46.12
2023-05-02T05:51:54.770Z,46.15
2023-05-02T05:52:54.790Z,46.16
2023-05-02T05:53:54.821Z,46.48
2023-05-02T05:54:54.893Z,46.63
2023-05-02T05:55:54.823Z,46.71
2023-05-02T05:56:54.848Z,46.64
2023-05-02T05:57:54.844Z,46.83
2023-05-02T05:58:54.912Z,46.84
2023-05-02T05:59:54.858Z,46.83
2023-05-02T06:00:54.858Z,47.16
2023-05-02T06:01:54.872Z,47.27
2023-05-02T06:02:54.945Z,47.13
2023-05-02T06:03:54.885Z,47.18
2023-05-02T06:04:54.906Z,47.40
2023-05-02T06:05:54.869Z,47.47
2023-05-02T06:06:54.987Z,47.62
2023-05-02T06:07:54.852Z,47.84
2023-05-02T06:08:54.845Z,48.27
2023-05-02T06:09:54.828Z,48.22
2023-05-02T06:10:54.824Z,48.27
2023-05-02T06:11:54.830Z,48.25
2023-05-02T06:12:55.280Z,48.21
2023-05-02T06:13:54.818Z,48.24
2023-05-02T06:14:54.785Z,48.41
2023-05-02T06:15:54.782Z,48.32
2023-05-02T06:16:54.775Z,48.45
2023-05-02T06:17:54.777Z,48.39
2023-05-02T06:18:54.739Z,48.57
2023-05-02T06:19:54.727Z,48.82
2023-05-02T06:20:54.702Z,48.71
2023-05-02T06:21:54.674Z,48.52
2023-05-02T06:22:54.653Z,48.51
2023-05-02T06:23:54.647Z,48.66
2023-05-02T06:24:54.684Z,48.67
2023-05-02T06:25:54.629Z,48.58
2023-05-02T06:26:54.645Z,48.47
2023-05-02T06:27:54.698Z,48.54
2023-05-02T06:28:54.598Z,48.73
2023-05-02T06:29:54.598Z,48.98
2023-05-02T06:30:54.571Z,49.08
2023-05-02T06:31:54.590Z,48.93
2023-05-02T06:32:54.707Z,48.93
2023-05-02T06:33:55.196Z,48.91
2023-05-02T06:34:54.549Z,48.91
2023-05-02T06:35:54.519Z,48.97
2023-05-02T06:36:54.502Z,49.00
2023-05-02T06:37:54.494Z,48.94
2023-05-02T06:38:55.195Z,49.02
2023-05-02T06:39:54.504Z,48.96
2023-05-02T06:40:54.489Z,49.09
2023-05-02T06:41:54.477Z,49.00
2023-05-02T06:42:54.483Z,49.03
2023-05-02T06:43:54.473Z,49.06
2023-05-02T06:44:54.470Z,49.09
2023-05-02T06:45:54.472Z,49.04
2023-05-02T06:46:54.463Z,49.03
2023-05-02T06:47:54.481Z,49.10
2023-05-02T06:48:54.444Z,49.12
2023-05-02T06:49:54.406Z,49.13
2023-05-02T06:50:54.423Z,49.10
2023-05-02T06:51:54.397Z,49.07
2023-05-02T06:52:54.387Z,49.03
2023-05-02T06:53:54.376Z,49.08
2023-05-02T06:54:54.359Z,49.05
2023-05-02T06:55:54.383Z,49.06
2023-05-02T06:56:54.422Z,49.05
2023-05-02T06:57:54.465Z,48.99
2023-05-02T06:58:54.567Z,48.98
2023-05-02T06:59:54.530Z,48.99
2023-05-02T07:00:54.625Z,49.00
2023-05-02T07:01:54.613Z,48.98
2023-05-02T07:02:54.662Z,49.02
2023-05-02T07:03:54.692Z,49.00
2023-05-02T07:04:54.615Z,48.96
2023-05-02T07:05:54.617Z,48.91
2023-05-02T07:06:54.661Z,48.84
2023-05-02T07:07:54.616Z,48.79
2023-05-02T07:08:54.605Z,48.87
2023-05-02T07:09:54.618Z,48.77
2023-05-02T07:10:54.598Z,48.78
2023-05-02T07:11:54.613Z,48.83
2023-05-02T07:12:54.606Z,48.75
2023-05-02T07:13:54.617Z,48.75
2023-05-02T07:14:54.689Z,48.75
2023-05-02T07:15:54.724Z,48.72
2023-05-02T07:16:54.824Z,48.67
2023-05-02T07:17:54.835Z,48.65
2023-05-02T07:18:54.923Z,48.55
2023-05-02T07:19:54.902Z,48.54
2023-05-02T07:20:54.956Z,48.59
2023-05-02T07:21:55.033Z,48.65
2023-05-02T07:22:54.994Z,49.14
2023-05-02T07:23:54.995Z,49.35
2023-05-02T07:24:55.027Z,49.00
2023-05-02T07:25:54.984Z,49.08
2023-05-02T07:26:55.001Z,49.05
2023-05-02T07:27:54.997Z,49.15
2023-05-02T07:28:54.982Z,49.13
2023-05-02T07:29:54.980Z,49.19
2023-05-02T07:30:54.975Z,49.25
2023-05-02T07:31:55.026Z,49.28
2023-05-02T07:32:55.838Z,49.23
2023-05-02T07:33:54.958Z,49.36
2023-05-02T07:34:54.958Z,49.45
2023-05-02T07:35:54.941Z,49.61
2023-05-02T07:36:54.933Z,50.12
2023-05-02T07:37:54.924Z,49.86
2023-05-02T07:38:54.933Z,49.76
2023-05-02T07:39:54.935Z,50.30
2023-05-02T07:40:54.927Z,50.04
2023-05-02T07:41:54.889Z,50.37
2023-05-02T07:42:54.885Z,50.60
2023-05-02T07:43:54.876Z,50.43
2023-05-02T07:44:55.888Z,50.31
2023-05-02T07:45:54.932Z,50.35
2023-05-02T07:46:54.856Z,50.12
2023-05-02T07:47:54.842Z,50.11
2023-05-02T07:48:54.826Z,50.20
2023-05-02T07:49:54.813Z,50.49
2023-05-02T07:50:54.801Z,50.27
2023-05-02T07:51:54.794Z,50.27
2023-05-02T07:52:54.784Z,50.26
2023-05-02T07:53:54.778Z,50.45
2023-05-02T07:54:54.765Z,50.52
2023-05-02T07:55:54.789Z,50.55
2023-05-02T07:56:55.803Z,51.17
2023-05-02T07:57:54.856Z,50.95
2023-05-02T07:58:54.900Z,51.22
2023-05-02T07:59:54.910Z,51.02
2023-05-02T08:00:54.939Z,50.74
2023-05-02T08:01:54.958Z,50.50
2023-05-02T08:02:55.113Z,49.06
2023-05-02T08:03:55.967Z,47.29
2023-05-02T08:04:55.034Z,47.10
2023-05-02T08:05:55.028Z,46.41
2023-05-02T08:06:55.135Z,46.22
2023-05-02T08:07:54.995Z,46.20
2023-05-02T08:08:54.990Z,46.00
2023-05-02T08:09:55.804Z,46.38
2023-05-02T08:10:54.996Z,46.24
2023-05-02T08:11:55.005Z,46.57
2023-05-02T08:12:55.827Z,46.16
2023-05-02T08:13:55.011Z,46.24
2023-05-02T08:14:54.995Z,46.76
2023-05-02T08:15:55.376Z,47.15
2023-05-02T08:16:55.014Z,46.42
2023-05-02T08:17:55.038Z,45.58
2023-05-02T08:18:55.061Z,44.35
2023-05-02T08:19:55.033Z,43.82
2023-05-02T08:20:55.061Z,44.01
2023-05-02T08:21:55.133Z,43.96
2023-05-02T08:22:55.174Z,43.37
2023-05-02T08:23:55.189Z,43.60
2023-05-02T08:24:55.230Z,43.79
2023-05-02T08:25:55.810Z,44.78
2023-05-02T08:26:55.335Z,44.96
2023-05-02T08:27:58.843Z,44.79
2023-05-02T08:28:55.395Z,45.03
2023-05-02T08:29:55.990Z,44.98
2023-05-02T08:30:55.483Z,45.22
2023-05-02T08:31:55.442Z,45.46
2023-05-02T08:32:55.484Z,45.74
2023-05-02T08:33:56.326Z,46.14
2023-05-02T08:34:55.379Z,46.55
2023-05-02T08:35:55.319Z,46.55
2023-05-02T08:36:58.053Z,46.50
2023-05-02T08:37:55.287Z,46.75
2023-05-02T08:38:55.289Z,46.85
2023-05-02T08:39:55.249Z,46.66
2023-05-02T08:40:55.242Z,46.80
2023-05-02T08:41:55.221Z,46.74
2023-05-02T08:42:55.215Z,46.69
2023-05-02T08:43:55.191Z,46.80
2023-05-02T08:44:55.190Z,46.96
2023-05-02T08:45:55.167Z,46.95
2023-05-02T08:46:55.225Z,47.00
2023-05-02T08:47:55.152Z,47.01
2023-05-02T08:48:55.121Z,47.11
2023-05-02T08:49:55.105Z,47.71
2023-05-02T08:50:55.078Z,47.58
2023-05-02T08:51:55.045Z,47.54
2023-05-02T08:52:55.030Z,47.62
2023-05-02T08:53:55.013Z,47.58
2023-05-02T08:54:54.996Z,47.70
2023-05-02T08:55:55.757Z,47.80
2023-05-02T08:56:54.967Z,47.83
2023-05-02T08:57:54.934Z,47.80
2023-05-02T08:58:54.923Z,48.03
2023-05-02T08:59:54.910Z,48.03
2023-05-02T09:00:54.942Z,48.02
2023-05-02T09:01:54.857Z,48.92
2023-05-02T09:02:54.888Z,48.52
2023-05-02T09:03:54.856Z,48.52
2023-05-02T09:04:54.809Z,48.93
2023-05-02T09:05:54.792Z,49.12
2023-05-02T09:06:54.815Z,49.01
2023-05-02T09:07:54.756Z,48.90
2023-05-02T09:08:54.783Z,48.72
2023-05-02T09:09:54.707Z,48.60
2023-05-02T09:10:54.688Z,48.87
2023-05-02T09:11:54.675Z,48.98
2023-05-02T09:12:54.649Z,48.99
2023-05-02T09:13:54.636Z,49.06
2023-05-02T09:14:55.343Z,49.37
2023-05-02T09:15:54.837Z,49.40
2023-05-02T09:16:54.920Z,47.71
2023-05-02T09:17:54.831Z,47.60
2023-05-02T09:18:54.782Z,47.28
2023-05-02T09:19:54.774Z,46.74
2023-05-02T09:20:54.741Z,46.91
2023-05-02T09:21:54.737Z,46.68
2023-05-02T09:22:54.701Z,45.96
2023-05-02T09:23:54.684Z,45.44
2023-05-02T09:24:54.660Z,45.63
2023-05-02T09:25:54.648Z,46.88
2023-05-02T09:26:54.624Z,46.94
2023-05-02T09:27:54.600Z,47.19
2023-05-02T09:28:54.585Z,47.48
2023-05-02T09:29:54.613Z,47.57
2023-05-02T09:30:54.693Z,47.49
2023-05-02T09:31:56.676Z,47.62
2023-05-02T09:32:54.751Z,47.84
2023-05-02T09:33:54.764Z,47.97
2023-05-02T09:34:54.794Z,47.95
2023-05-02T09:35:54.836Z,47.91
2023-05-02T09:36:54.985Z,48.05
2023-05-02T09:37:54.877Z,48.20
2023-05-02T09:38:54.973Z,48.36
2023-05-02T09:39:54.935Z,48.56
2023-05-02T09:40:54.951Z,48.50
2023-05-02T09:41:55.073Z,48.62
2023-05-02T09:42:55.023Z,48.64
2023-05-02T09:43:55.029Z,48.78
2023-05-02T09:44:55.050Z,48.63
2023-05-02T09:45:55.089Z,48.82
2023-05-02T09:46:55.097Z,49.13
2023-05-02T09:47:55.258Z,49.03
2023-05-02T09:48:55.096Z,49.03
2023-05-02T09:49:55.091Z,49.76
2023-05-02T09:50:55.107Z,49.34
2023-05-02T09:51:55.106Z,49.16
2023-05-02T09:52:55.128Z,49.20
2023-05-02T09:53:55.158Z,49.32
2023-05-02T09:54:55.116Z,49.49
2023-05-02T09:55:55.112Z,49.42
2023-05-02T09:56:55.117Z,49.56
2023-05-02T09:57:55.854Z,49.94
2023-05-02T09:58:55.124Z,50.09
2023-05-02T09:59:55.115Z,50.40
2023-05-02T10:00:55.118Z,50.19
2023-05-02T10:01:55.205Z,50.03
2023-05-02T10:02:55.136Z,50.50
2023-05-02T10:03:55.069Z,50.65
2023-05-02T10:04:55.062Z,50.98
2023-05-02T10:05:55.206Z,50.98
2023-05-02T10:06:55.009Z,51.06
2023-05-02T10:07:54.975Z,51.03
2023-05-02T10:08:55.966Z,51.47
2023-05-02T10:09:54.911Z,51.67
2023-05-02T10:10:54.875Z,50.42
2023-05-02T10:11:54.854Z,50.57
2023-05-02T10:12:54.853Z,50.68
2023-05-02T10:13:56.460Z,50.80
2023-05-02T10:14:54.793Z,50.91
2023-05-02T10:15:56.432Z,50.78
2023-05-02T10:16:54.740Z,50.70
2023-05-02T10:17:54.766Z,50.74
2023-05-02T10:18:54.749Z,50.86
2023-05-02T10:19:55.327Z,50.93
2023-05-02T10:20:54.671Z,51.01
2023-05-02T10:21:59.374Z,51.03
2023-05-02T10:22:55.368Z,51.04
2023-05-02T10:23:54.596Z,50.97
2023-05-02T10:24:55.371Z,51.02
2023-05-02T10:25:54.585Z,51.05
2023-05-02T10:26:56.446Z,51.02
2023-05-02T10:27:54.525Z,50.98
2023-05-02T10:28:54.487Z,51.06
2023-05-02T10:29:57.366Z,51.19
2023-05-02T10:30:54.463Z,51.19
2023-05-02T10:31:54.500Z,51.24
2023-05-02T10:32:54.505Z,51.30
2023-05-02T10:33:54.399Z,51.26
2023-05-02T10:34:54.367Z,51.27
2023-05-02T10:35:54.352Z,51.46
2023-05-02T10:36:54.339Z,51.40
2023-05-02T10:37:54.332Z,51.43
2023-05-02T10:38:54.311Z,51.51
2023-05-02T10:39:54.290Z,51.50
2023-05-02T10:40:54.278Z,51.48
2023-05-02T10:41:54.255Z,51.49
2023-05-02T10:43:01.866Z,51.39
2023-05-02T10:43:54.210Z,51.48
2023-05-02T10:44:55.876Z,51.43
2023-05-02T10:45:54.192Z,51.49
2023-05-02T10:46:54.196Z,51.51
2023-05-02T10:47:54.886Z,51.48
2023-05-02T10:48:54.146Z,51.48
2023-05-02T10:49:58.905Z,51.51
2023-05-02T10:50:54.093Z,51.46
2023-05-02T10:51:54.082Z,51.43
2023-05-02T10:52:54.058Z,51.42
2023-05-02T10:53:59.373Z,51.45
2023-05-02T10:54:54.011Z,51.42
2023-05-02T10:55:54.037Z,51.35
2023-05-02T10:56:54.069Z,51.46
2023-05-02T10:57:54.119Z,51.32
2023-05-02T10:58:54.179Z,51.37
2023-05-02T10:59:54.227Z,51.42
2023-05-02T11:00:54.301Z,51.41
2023-05-02T11:01:54.300Z,51.29
2023-05-02T11:02:54.402Z,51.27
2023-05-02T11:03:54.351Z,51.28
2023-05-02T11:04:54.370Z,51.27
2023-05-02T11:05:54.437Z,51.25
2023-05-02T11:06:54.488Z,51.17
2023-05-02T11:07:54.539Z,51.15
2023-05-02T11:08:54.578Z,51.16
2023-05-02T11:09:54.617Z,51.08
2023-05-02T11:10:54.688Z,51.13
2023-05-02T11:11:54.731Z,51.11
2023-05-02T11:12:54.788Z,51.14
2023-05-02T11:13:54.841Z,51.08
2023-05-02T11:14:54.877Z,51.08
2023-05-02T11:15:54.911Z,51.04
2023-05-02T11:16:55.132Z,50.98
2023-05-02T11:17:55.016Z,51.10
2023-05-02T11:18:54.992Z,51.06
2023-05-02T11:19:55.004Z,51.02
2023-05-02T11:20:55.032Z,51.00
2023-05-02T11:21:55.056Z,51.03
2023-05-02T11:22:55.220Z,50.91
2023-05-02T11:23:55.137Z,50.97
2023-05-02T11:24:55.115Z,51.01
2023-05-02T11:25:55.213Z,50.95
2023-05-02T11:26:55.249Z,50.91
2023-05-02T11:27:55.283Z,50.87
2023-05-02T11:28:55.357Z,50.93
2023-05-02T11:29:55.399Z,50.86
2023-05-02T11:30:56.685Z,50.86
2023-05-02T11:31:55.593Z,50.85
2023-05-02T11:32:55.578Z,50.86
2023-05-02T11:33:55.618Z,50.90
2023-05-02T11:34:55.668Z,50.92
2023-05-02T11:35:55.722Z,50.93
2023-05-02T11:36:55.758Z,50.93
2023-05-02T11:37:55.758Z,50.92
2023-05-02T11:38:55.752Z,50.91
2023-05-02T11:39:55.772Z,50.93
2023-05-02T11:40:55.739Z,50.94
2023-05-02T11:41:55.747Z,50.93
2023-05-02T11:42:55.772Z,50.92
2023-05-02T11:43:55.775Z,50.87
2023-05-02T11:44:55.772Z,50.91
2023-05-02T11:45:55.787Z,50.90
2023-05-02T11:46:55.764Z,50.84
2023-05-02T11:47:55.752Z,50.91
2023-05-02T11:48:55.768Z,50.87
2023-05-02T11:49:55.742Z,50.90
2023-05-02T11:50:55.749Z,50.89
2023-05-02T11:51:55.747Z,50.85
2023-05-02T11:52:55.731Z,50.84
2023-05-02T11:53:55.718Z,50.84
2023-05-02T11:54:55.731Z,50.80
2023-05-02T11:55:55.715Z,50.84
2023-05-02T11:56:55.722Z,50.83
2023-05-02T11:57:55.681Z,50.82
2023-05-02T11:58:55.687Z,50.79
2023-05-02T11:59:55.683Z,50.80
2023-05-02T12:00:55.682Z,50.73
2023-05-02T12:01:55.687Z,50.80
2023-05-02T12:02:55.767Z,50.74
2023-05-02T12:03:55.700Z,50.76
2023-05-02T12:04:55.673Z,50.74
2023-05-02T12:05:55.683Z,50.70
2023-05-02T12:06:55.691Z,50.70
2023-05-02T12:07:55.656Z,50.67
2023-05-02T12:08:55.695Z,50.54
2023-05-02T12:09:55.648Z,50.55
2023-05-02T12:10:55.634Z,50.46
2023-05-02T12:11:55.634Z,50.51
2023-05-02T12:12:55.631Z,50.47
2023-05-02T12:13:55.625Z,50.47
2023-05-02T12:14:55.633Z,50.45
2023-05-02T12:15:55.732Z,50.47
2023-05-02T12:16:55.587Z,50.46
2023-05-02T12:17:55.695Z,50.39
2023-05-02T12:18:55.588Z,50.44
2023-05-02T12:19:55.577Z,50.39
2023-05-02T12:20:55.578Z,50.42
2023-05-02T12:21:55.642Z,50.38
2023-05-02T12:22:55.552Z,50.36
2023-05-02T12:23:55.551Z,50.37
2023-05-02T12:24:55.532Z,50.36
2023-05-02T12:25:55.537Z,50.35
2023-05-02T12:26:55.516Z,50.33
2023-05-02T12:27:55.506Z,50.28
2023-05-02T12:28:55.503Z,50.31
2023-05-02T12:29:55.488Z,50.37
2023-05-02T12:30:55.495Z,50.29
2023-05-02T12:31:55.569Z,50.32
2023-05-02T12:32:55.519Z,50.35
2023-05-02T12:33:55.526Z,50.34
2023-05-02T12:34:55.481Z,50.29
2023-05-02T12:35:55.459Z,50.32
2023-05-02T12:36:55.468Z,50.32
2023-05-02T12:37:55.440Z,50.34
2023-05-02T12:38:55.435Z,50.35
2023-05-02T12:39:55.416Z,50.34
2023-05-02T12:40:55.431Z,50.36
2023-05-02T12:41:55.426Z,50.29
2023-05-02T12:42:55.427Z,50.30
2023-05-02T12:43:55.408Z,50.28
2023-05-02T12:44:55.415Z,50.23
2023-05-02T12:45:55.418Z,50.23
2023-05-02T12:46:55.416Z,50.26
2023-05-02T12:47:55.425Z,50.19
2023-05-02T12:48:55.406Z,50.25
2023-05-02T12:49:55.417Z,50.26
2023-05-02T12:50:55.448Z,50.19
2023-05-02T12:51:55.419Z,50.20
2023-05-02T12:52:55.425Z,50.26